Terminal Aerodrome Forecast
Issued by NWS

Home | Current Version | Previous Version | Text Only | Print | Product List | Glossary On
Versions: 1 2 3 4 5 6 7 8 9 10 11 12 13 14
696
FTUS43 KGRB 212339
TAFAUW
TAF
KAUW 212339Z 2200/2224 06004KT P6SM OVC100
     FM220500 06009KT 4SM BR VCSH SCT010 OVC070
     FM220900 06009KT 4SM -RASN BR OVC008
     FM221200 06010G20KT 4SM -SN OVC008
     FM221400 06014G23KT 1 1/2SM -SN OVC008
     FM222000 05017G26KT 1/2SM SN OVC003=

USA.gov is the U.S. government's official web portal to all federal, state and local government web resources and services.